createdAt,value
2018-06-18T00:01:40.472Z,13.80
2018-06-18T00:04:15.875Z,13.80
2018-06-18T00:06:51.404Z,13.80
2018-06-18T00:09:26.767Z,13.80
2018-06-18T00:12:02.245Z,13.80
2018-06-18T00:14:37.610Z,13.70
2018-06-18T00:17:13.131Z,13.70
2018-06-18T00:19:48.626Z,13.80
2018-06-18T00:22:24.068Z,13.70
2018-06-18T00:24:59.553Z,13.70
2018-06-18T00:27:34.957Z,13.60
2018-06-18T00:30:10.463Z,13.70
2018-06-18T00:32:45.859Z,13.60
2018-06-18T00:35:21.272Z,13.70
2018-06-18T00:37:56.823Z,13.70
2018-06-18T00:40:32.225Z,13.60
2018-06-18T00:43:07.997Z,13.60
2018-06-18T00:45:43.491Z,13.70
2018-06-18T00:48:18.912Z,13.70
2018-06-18T00:50:54.295Z,13.70
2018-06-18T00:53:29.835Z,13.70
2018-06-18T00:56:14.900Z,13.70
2018-06-18T00:58:50.416Z,13.60
2018-06-18T01:01:25.820Z,13.70
2018-06-18T01:04:01.185Z,13.70
2018-06-18T01:06:36.676Z,13.70
2018-06-18T01:09:13.005Z,13.60
2018-06-18T01:11:48.412Z,13.70
2018-06-18T01:16:59.365Z,13.70
2018-06-18T01:19:34.824Z,13.70
2018-06-18T01:22:10.481Z,13.70
2018-06-18T01:24:53.392Z,13.70
2018-06-18T01:27:28.879Z,13.70
2018-06-18T01:30:04.560Z,13.60
2018-06-18T01:32:39.943Z,13.70
2018-06-18T01:35:15.376Z,13.60
2018-06-18T01:37:50.903Z,13.60
2018-06-18T01:43:01.647Z,13.60
2018-06-18T01:45:37.196Z,13.60
2018-06-18T01:48:12.707Z,13.60
2018-06-18T01:50:48.281Z,13.60
2018-06-18T01:53:23.701Z,13.70
2018-06-18T01:55:59.144Z,13.70
2018-06-18T01:58:34.524Z,13.60
2018-06-18T02:01:09.925Z,13.60
2018-06-18T02:03:45.456Z,13.60
2018-06-18T02:06:20.962Z,13.60
2018-06-18T02:08:56.461Z,13.70
2018-06-18T02:14:07.426Z,13.60
2018-06-18T02:16:43.046Z,13.70
2018-06-18T02:19:18.399Z,13.70
2018-06-18T02:21:53.773Z,13.70
2018-06-18T02:24:29.195Z,13.70
2018-06-18T02:27:09.947Z,13.70
2018-06-18T02:36:39.420Z,13.80
2018-06-18T02:39:15.622Z,13.70
2018-06-18T02:41:51.197Z,13.70
2018-06-18T02:44:26.571Z,13.70
2018-06-18T02:47:02.164Z,13.70
2018-06-18T02:54:47.642Z,13.70
2018-06-18T02:57:23.192Z,13.70
2018-06-18T02:59:58.571Z,13.70
2018-06-18T03:02:34.151Z,13.70
2018-06-18T03:05:09.508Z,13.70
2018-06-18T03:07:45.052Z,13.70
2018-06-18T03:10:20.541Z,13.60
2018-06-18T03:12:56.055Z,13.60
2018-06-18T03:15:31.600Z,13.60
2018-06-18T03:18:10.648Z,13.50
2018-06-18T03:20:51.212Z,13.50
2018-06-18T03:23:31.905Z,13.50
2018-06-18T03:26:12.607Z,13.50
2018-06-18T03:28:53.303Z,13.50
2018-06-18T03:31:28.848Z,13.50
2018-06-18T03:34:04.377Z,13.50
2018-06-18T03:36:40.223Z,13.50
2018-06-18T03:39:15.633Z,13.50
2018-06-18T03:41:52.065Z,13.50
2018-06-18T03:44:37.820Z,13.50
2018-06-18T03:47:19.216Z,13.50
2018-06-18T03:49:54.864Z,13.60
2018-06-18T03:52:30.206Z,13.60
2018-06-18T03:57:45.151Z,13.60
2018-06-18T04:05:03.449Z,13.70
2018-06-18T04:07:44.095Z,13.80
2018-06-18T04:10:24.760Z,13.80
2018-06-18T04:13:00.284Z,13.80
2018-06-18T04:20:48.531Z,13.70
2018-06-18T04:25:59.099Z,13.60
2018-06-18T04:28:34.640Z,13.60
2018-06-18T04:31:10.117Z,13.60
2018-06-18T04:33:57.843Z,13.60
2018-06-18T04:36:33.268Z,13.60
2018-06-18T04:39:09.737Z,13.70
2018-06-18T04:41:50.225Z,13.70
2018-06-18T04:44:30.816Z,13.80
2018-06-18T04:47:11.547Z,13.80
2018-06-18T04:49:52.269Z,13.90
2018-06-18T04:52:28.014Z,13.90
2018-06-18T04:55:03.575Z,13.90
2018-06-18T04:57:38.977Z,13.90
2018-06-18T05:00:54.978Z,14.00
2018-06-18T05:03:30.452Z,14.00
2018-06-18T05:06:05.900Z,14.10
2018-06-18T05:09:56.146Z,14.20
2018-06-18T05:12:31.638Z,14.60
2018-06-18T05:15:07.059Z,15.50
2018-06-18T05:17:42.403Z,15.60
2018-06-18T05:20:17.820Z,15.80
2018-06-18T05:22:53.597Z,16.20
2018-06-18T05:28:04.285Z,16.80
2018-06-18T05:30:39.805Z,16.80
2018-06-18T05:35:50.260Z,17.30
2018-06-18T05:38:30.988Z,17.50
2018-06-18T05:43:41.428Z,17.60
2018-06-18T05:46:16.927Z,17.70
2018-06-18T05:48:52.539Z,18.10
2018-06-18T05:51:27.925Z,18.20
2018-06-18T05:54:03.576Z,18.50
2018-06-18T05:56:38.996Z,18.70
2018-06-18T05:59:14.448Z,18.40
2018-06-18T06:01:49.860Z,18.30
2018-06-18T06:04:25.386Z,18.40
2018-06-18T06:07:00.983Z,18.70
2018-06-18T06:09:36.456Z,18.60
2018-06-18T06:12:11.990Z,19.00
2018-06-18T06:14:47.357Z,19.20
2018-06-18T06:17:23.966Z,19.40
2018-06-18T06:19:59.508Z,19.00
2018-06-18T06:22:34.900Z,19.40
2018-06-18T06:25:10.376Z,19.10
2018-06-18T06:27:45.908Z,18.90
2018-06-18T06:30:21.436Z,19.60
2018-06-18T06:32:56.907Z,19.90
2018-06-18T06:35:34.951Z,20.00
2018-06-18T06:38:10.369Z,19.80
2018-06-18T06:40:45.926Z,19.80
2018-06-18T06:43:21.343Z,19.50
2018-06-18T06:45:56.990Z,19.30
2018-06-18T06:48:32.515Z,19.70
2018-06-18T06:51:08.065Z,20.30
2018-06-18T06:53:43.483Z,20.60
2018-06-18T06:56:18.943Z,20.70
2018-06-18T06:58:54.440Z,20.30
2018-06-18T07:04:05.259Z,19.80
2018-06-18T07:06:40.785Z,19.40
2018-06-18T07:09:16.375Z,19.10
2018-06-18T07:11:51.921Z,18.60
2018-06-18T07:14:27.585Z,18.60
2018-06-18T07:17:02.951Z,18.50
2018-06-18T07:22:13.424Z,18.30
2018-06-18T07:24:49.020Z,18.10
2018-06-18T07:27:24.574Z,18.00
2018-06-18T07:32:35.120Z,17.90
2018-06-18T07:35:10.725Z,17.70
2018-06-18T07:37:46.222Z,18.00
2018-06-18T07:40:21.594Z,17.90
2018-06-18T07:42:57.666Z,17.70
2018-06-18T07:45:33.441Z,17.70
2018-06-18T07:48:08.857Z,17.80
2018-06-18T07:50:44.380Z,17.90
2018-06-18T07:53:19.888Z,18.10
2018-06-18T07:55:55.490Z,18.00
2018-06-18T07:58:31.019Z,17.90
2018-06-18T08:01:06.766Z,18.20
2018-06-18T08:03:42.437Z,18.30
2018-06-18T08:06:17.859Z,18.30
2018-06-18T08:08:53.275Z,19.00
2018-06-18T08:11:28.853Z,19.90
2018-06-18T08:16:39.404Z,20.10
2018-06-18T08:19:14.825Z,20.50
2018-06-18T08:21:50.434Z,22.90
2018-06-18T08:24:25.905Z,22.60
2018-06-18T08:27:01.543Z,22.90
2018-06-18T08:29:37.011Z,22.30
2018-06-18T08:32:12.448Z,23.40
2018-06-18T08:37:22.948Z,21.40
2018-06-18T08:39:58.311Z,21.80
2018-06-18T08:42:33.910Z,21.50
2018-06-18T08:45:09.301Z,21.50
2018-06-18T08:47:44.849Z,22.10
2018-06-18T08:50:25.720Z,22.20
2018-06-18T08:55:46.652Z,22.90
2018-06-18T08:58:27.491Z,22.70
2018-06-18T09:01:08.177Z,21.80
2018-06-18T09:03:48.899Z,21.20
2018-06-18T09:06:24.428Z,20.60
2018-06-18T09:09:00.328Z,21.00
2018-06-18T09:11:36.116Z,20.80
2018-06-18T09:14:11.551Z,20.80
2018-06-18T09:16:47.071Z,20.70
2018-06-18T09:19:22.634Z,20.10
2018-06-18T09:21:58.025Z,20.10
2018-06-18T09:24:34.092Z,20.40
2018-06-18T09:27:12.339Z,20.10
2018-06-18T09:29:53.005Z,21.10
2018-06-18T09:35:03.626Z,21.00
2018-06-18T09:37:39.187Z,20.50
2018-06-18T09:40:14.649Z,19.80
2018-06-18T09:42:50.113Z,19.60
2018-06-18T09:45:25.658Z,19.50
2018-06-18T09:48:01.193Z,19.30
2018-06-18T09:50:41.828Z,19.00
2018-06-18T09:53:22.503Z,18.90
2018-06-18T09:56:03.328Z,18.50
2018-06-18T09:58:44.179Z,18.40
2018-06-18T10:01:25.055Z,18.30
2018-06-18T10:04:01.380Z,18.60
2018-06-18T10:06:38.112Z,18.60
2018-06-18T10:09:13.579Z,18.50
2018-06-18T10:11:49.120Z,18.60
2018-06-18T10:14:24.561Z,18.90
2018-06-18T10:17:00.044Z,19.20
2018-06-18T10:19:35.647Z,19.50
2018-06-18T10:22:11.220Z,19.50
2018-06-18T10:24:46.757Z,19.10
2018-06-18T10:27:22.186Z,18.80
2018-06-18T10:29:57.900Z,18.40
2018-06-18T10:32:38.832Z,18.20
2018-06-18T10:35:19.577Z,18.10
2018-06-18T10:38:00.311Z,18.00
2018-06-18T10:40:40.995Z,18.00
2018-06-18T10:43:20.699Z,18.00
2018-06-18T10:45:56.096Z,18.10
2018-06-18T10:48:31.636Z,18.10
2018-06-18T10:51:08.099Z,18.20
2018-06-18T10:53:43.563Z,18.60
2018-06-18T10:56:18.940Z,19.20
2018-06-18T11:01:32.897Z,19.70
2018-06-18T11:04:12.528Z,19.60
2018-06-18T11:06:48.003Z,19.20
2018-06-18T11:09:23.410Z,18.80
2018-06-18T11:11:58.948Z,18.60
2018-06-18T11:14:36.556Z,18.50
2018-06-18T11:17:17.680Z,18.60
2018-06-18T11:19:58.117Z,18.70
2018-06-18T11:22:39.465Z,18.80
2018-06-18T11:25:20.212Z,18.90
2018-06-18T11:27:55.848Z,19.00
2018-06-18T11:30:31.968Z,18.90
2018-06-18T11:33:07.379Z,18.90
2018-06-18T11:35:43.020Z,19.00
2018-06-18T11:38:18.511Z,19.00
2018-06-18T11:43:29.041Z,19.00
2018-06-18T11:46:04.544Z,19.00
2018-06-18T11:48:40.120Z,19.00
2018-06-18T11:51:15.725Z,18.90
2018-06-18T11:53:51.251Z,18.80
2018-06-18T11:56:26.913Z,18.60
2018-06-18T11:59:07.520Z,18.30
2018-06-18T12:01:48.407Z,18.20
2018-06-18T12:07:09.756Z,18.20
2018-06-18T12:12:20.186Z,18.10
2018-06-18T12:14:55.673Z,18.10
2018-06-18T12:17:31.335Z,18.10
2018-06-18T12:20:06.803Z,18.20
2018-06-18T12:22:42.459Z,18.30
2018-06-18T12:25:18.031Z,18.30
2018-06-18T12:27:53.429Z,18.10
2018-06-18T12:30:29.073Z,18.20
2018-06-18T12:33:04.657Z,18.20
2018-06-18T12:35:42.040Z,18.30
2018-06-18T12:38:17.563Z,18.20
2018-06-18T12:40:54.312Z,18.30
2018-06-18T12:43:34.114Z,18.40
2018-06-18T12:46:14.763Z,18.30
2018-06-18T12:48:55.647Z,18.00
2018-06-18T12:51:36.942Z,17.90
2018-06-18T12:54:17.866Z,17.80
2018-06-18T12:56:57.397Z,17.70
2018-06-18T12:59:36.530Z,17.50
2018-06-18T13:02:17.888Z,17.50
2018-06-18T13:04:57.757Z,17.70
2018-06-18T13:07:33.476Z,17.90
2018-06-18T13:10:09.026Z,18.20
2018-06-18T13:12:44.527Z,18.40
2018-06-18T13:15:20.251Z,18.60
2018-06-18T13:17:56.041Z,18.90
2018-06-18T13:20:31.784Z,18.90
2018-06-18T13:23:07.593Z,18.90
2018-06-18T13:25:43.368Z,18.60
2018-06-18T13:28:18.984Z,18.50
2018-06-18T13:30:54.638Z,18.40
2018-06-18T13:33:30.171Z,18.50
2018-06-18T13:38:46.173Z,18.40
2018-06-18T13:41:27.079Z,18.40
2018-06-18T13:44:07.925Z,18.40
2018-06-18T13:46:48.725Z,18.40
2018-06-18T13:49:28.480Z,18.50
2018-06-18T13:52:04.041Z,18.30
2018-06-18T13:54:39.473Z,18.50
2018-06-18T13:57:14.976Z,18.60
2018-06-18T13:59:50.587Z,18.80
2018-06-18T14:02:26.027Z,18.80
2018-06-18T14:05:01.608Z,18.40
2018-06-18T14:07:36.996Z,18.20
2018-06-18T14:10:12.538Z,18.10
2018-06-18T14:12:47.979Z,17.90
2018-06-18T14:15:23.619Z,17.80
2018-06-18T14:17:59.109Z,17.80
2018-06-18T14:20:34.523Z,17.80
2018-06-18T14:23:10.037Z,17.60
2018-06-18T14:25:45.433Z,17.50
2018-06-18T14:31:01.297Z,17.50
2018-06-18T14:33:42.080Z,17.60
2018-06-18T14:36:22.817Z,17.40
2018-06-18T14:42:41.555Z,17.30
2018-06-18T14:45:17.016Z,17.30
2018-06-18T14:47:52.435Z,17.40
2018-06-18T14:50:27.964Z,17.30
2018-06-18T14:53:03.487Z,17.40
2018-06-18T14:55:38.939Z,17.30
2018-06-18T14:58:15.796Z,17.20
2018-06-18T15:03:26.320Z,17.00
2018-06-18T15:06:01.853Z,17.10
2018-06-18T15:08:37.236Z,17.20
2018-06-18T15:11:12.848Z,17.30
2018-06-18T15:13:48.331Z,17.30
2018-06-18T15:16:26.044Z,17.40
2018-06-18T15:19:02.089Z,17.30
2018-06-18T15:21:41.851Z,17.20
2018-06-18T15:24:26.910Z,17.10
2018-06-18T15:27:02.560Z,17.00
2018-06-18T15:29:38.057Z,17.10
2018-06-18T15:32:13.617Z,17.00
2018-06-18T15:34:49.088Z,17.00
2018-06-18T15:37:24.645Z,17.00
2018-06-18T15:40:00.071Z,17.00
2018-06-18T15:42:35.525Z,17.10
2018-06-18T15:45:11.009Z,17.10
2018-06-18T15:52:56.688Z,16.80
2018-06-18T15:55:32.224Z,16.70
2018-06-18T15:58:07.729Z,16.60
2018-06-18T16:00:43.187Z,16.60
2018-06-18T16:03:18.696Z,16.60
2018-06-18T16:05:54.299Z,16.50
2018-06-18T16:08:29.963Z,16.50
2018-06-18T16:11:05.508Z,16.50
2018-06-18T16:13:41.128Z,16.60
2018-06-18T16:16:16.686Z,16.40
2018-06-18T16:18:52.088Z,16.40
2018-06-18T16:21:27.550Z,16.50
2018-06-18T16:24:03.139Z,16.50
2018-06-18T16:26:38.592Z,16.50
2018-06-18T16:29:14.151Z,16.60
2018-06-18T16:31:49.727Z,16.60
2018-06-18T16:34:25.233Z,16.50
2018-06-18T16:39:35.919Z,16.70
2018-06-18T16:44:46.508Z,16.50
2018-06-18T16:49:57.109Z,16.70
2018-06-18T16:57:42.773Z,16.90
2018-06-18T17:00:18.418Z,16.80
2018-06-18T17:02:53.860Z,16.60
2018-06-18T17:05:29.243Z,16.60
2018-06-18T17:08:04.853Z,16.70
2018-06-18T17:10:40.415Z,16.80
2018-06-18T17:13:15.951Z,16.80
2018-06-18T17:15:51.539Z,16.70
2018-06-18T17:18:27.066Z,16.70
2018-06-18T17:21:02.657Z,16.80
2018-06-18T17:23:38.081Z,16.90
2018-06-18T17:26:13.526Z,16.80
2018-06-18T17:28:49.071Z,16.90
2018-06-18T17:31:24.750Z,16.80
2018-06-18T17:34:00.275Z,16.90
2018-06-18T17:36:35.836Z,16.80
2018-06-18T17:39:12.846Z,16.70
2018-06-18T17:41:48.256Z,16.60
2018-06-18T17:44:23.844Z,16.80
2018-06-18T17:46:59.394Z,16.80
2018-06-18T17:49:35.032Z,16.70
2018-06-18T17:52:10.465Z,16.70
2018-06-18T17:54:45.913Z,16.80
2018-06-18T17:57:21.339Z,16.80
2018-06-18T17:59:56.752Z,16.70
2018-06-18T18:02:32.225Z,16.80
2018-06-18T18:05:07.612Z,16.80
2018-06-18T18:07:43.001Z,16.70
2018-06-18T18:10:18.399Z,16.80
2018-06-18T18:12:53.856Z,16.80
2018-06-18T18:15:29.292Z,16.90
2018-06-18T18:18:04.872Z,16.90
2018-06-18T18:20:40.516Z,16.90
2018-06-18T18:23:16.072Z,17.00
2018-06-18T18:25:51.710Z,16.90
2018-06-18T18:28:27.216Z,16.90
2018-06-18T18:31:02.869Z,16.90
2018-06-18T18:33:38.312Z,16.90
2018-06-18T18:36:13.823Z,16.90
2018-06-18T18:38:49.423Z,16.90
2018-06-18T18:41:24.898Z,16.90
2018-06-18T18:44:00.330Z,16.90
2018-06-18T18:46:35.778Z,16.80
2018-06-18T18:49:11.263Z,16.70
2018-06-18T18:51:47.337Z,16.70
2018-06-18T18:56:37.852Z,16.60
2018-06-18T18:59:19.691Z,16.60
2018-06-18T19:01:55.203Z,16.60
2018-06-18T19:05:10.856Z,16.50
2018-06-18T19:07:46.267Z,16.50
2018-06-18T19:10:24.541Z,16.50
2018-06-18T19:13:02.127Z,16.40
2018-06-18T19:15:38.006Z,16.40
2018-06-18T19:18:13.353Z,16.40
2018-06-18T19:21:07.467Z,16.30
2018-06-18T19:23:43.018Z,16.20
2018-06-18T19:28:53.668Z,16.20
2018-06-18T19:31:29.134Z,16.20
2018-06-18T19:34:10.290Z,16.20
2018-06-18T19:36:47.968Z,16.20
2018-06-18T19:39:25.421Z,16.20
2018-06-18T19:42:00.830Z,16.30
2018-06-18T19:44:36.501Z,16.20
2018-06-18T19:47:20.129Z,16.20
2018-06-18T19:49:55.604Z,16.20
2018-06-18T19:52:31.093Z,16.10
2018-06-18T19:55:09.631Z,16.10
2018-06-18T19:57:45.304Z,16.00
2018-06-18T20:00:21.840Z,16.00
2018-06-18T20:02:57.356Z,16.00
2018-06-18T20:05:32.897Z,15.90
2018-06-18T20:08:11.317Z,15.90
2018-06-18T20:10:46.820Z,15.90
2018-06-18T20:13:22.235Z,15.80
2018-06-18T20:15:57.763Z,15.80
2018-06-18T20:18:33.200Z,15.70
2018-06-18T20:21:08.657Z,15.70
2018-06-18T20:23:44.247Z,15.60
2018-06-18T20:26:19.653Z,15.70
2018-06-18T20:28:55.224Z,15.70
2018-06-18T20:31:30.780Z,15.70
2018-06-18T20:34:07.149Z,15.70
2018-06-18T20:36:42.712Z,15.70
2018-06-18T20:39:18.280Z,15.70
2018-06-18T20:41:53.832Z,15.70
2018-06-18T20:44:29.370Z,15.70
2018-06-18T20:47:04.932Z,15.70
2018-06-18T20:49:40.361Z,15.70
2018-06-18T20:52:24.500Z,15.70
2018-06-18T20:54:59.925Z,15.70
2018-06-18T20:57:35.665Z,15.70
2018-06-18T21:00:11.349Z,15.70
2018-06-18T21:02:46.996Z,15.70
2018-06-18T21:05:22.506Z,15.70
2018-06-18T21:07:58.802Z,15.70
2018-06-18T21:10:34.412Z,15.70
2018-06-18T21:13:10.022Z,15.60
2018-06-18T21:15:45.524Z,15.70
2018-06-18T21:18:20.957Z,15.60
2018-06-18T21:20:56.552Z,15.60
2018-06-18T21:23:32.206Z,15.60
2018-06-18T21:26:07.969Z,15.60
2018-06-18T21:28:43.621Z,15.70
2018-06-18T21:31:19.158Z,15.70
2018-06-18T21:33:54.744Z,15.70
2018-06-18T21:36:30.115Z,15.70
2018-06-18T21:39:08.024Z,15.60
2018-06-18T21:41:43.569Z,15.60
2018-06-18T21:46:56.882Z,15.60
2018-06-18T21:49:32.424Z,15.60
2018-06-18T21:52:07.860Z,15.60
2018-06-18T21:54:44.278Z,15.60
2018-06-18T21:59:54.988Z,15.60
2018-06-18T22:02:30.354Z,15.60
2018-06-18T22:05:06.423Z,15.60
2018-06-18T22:07:42.784Z,15.50
2018-06-18T22:10:18.428Z,15.50
2018-06-18T22:15:28.939Z,15.40
2018-06-18T22:18:04.537Z,15.40
2018-06-18T22:20:40.016Z,15.40
2018-06-18T22:23:15.466Z,15.40
2018-06-18T22:25:50.899Z,15.30
2018-06-18T22:28:30.391Z,15.30
2018-06-18T22:31:06.102Z,15.30
2018-06-18T22:33:41.630Z,15.30
2018-06-18T22:36:17.151Z,15.20
2018-06-18T22:38:52.788Z,15.20
2018-06-18T22:41:28.330Z,15.20
2018-06-18T22:44:03.960Z,15.20
2018-06-18T22:46:39.400Z,15.20
2018-06-18T22:49:14.862Z,15.30
2018-06-18T22:51:50.375Z,15.20
2018-06-18T22:54:25.798Z,15.30
2018-06-18T22:57:01.513Z,15.30
2018-06-18T23:02:12.992Z,15.30
2018-06-18T23:04:48.483Z,15.30
2018-06-18T23:07:23.872Z,15.30
2018-06-18T23:09:59.386Z,15.30
2018-06-18T23:12:40.622Z,15.30
2018-06-18T23:17:51.227Z,15.20
2018-06-18T23:20:26.680Z,15.20
2018-06-18T23:23:02.259Z,15.10
2018-06-18T23:25:37.767Z,15.20
2018-06-18T23:28:13.722Z,15.20
2018-06-18T23:30:49.200Z,15.20
2018-06-18T23:35:59.612Z,15.10
2018-06-18T23:38:35.051Z,15.10
2018-06-18T23:41:10.420Z,15.10
2018-06-18T23:43:45.936Z,15.10
2018-06-18T23:46:21.462Z,15.10
2018-06-18T23:48:56.872Z,15.00
2018-06-18T23:51:32.412Z,14.90
2018-06-18T23:54:07.872Z,14.90
2018-06-18T23:56:43.359Z,14.90
2018-06-18T23:59:18.955Z,14.90
